createdAt,value
2022-11-14T00:00:02.410Z,994.81
2022-11-14T00:01:02.350Z,994.83
2022-11-14T00:02:02.371Z,994.81
2022-11-14T00:03:02.381Z,994.81
2022-11-14T00:04:02.313Z,994.79
2022-11-14T00:05:02.283Z,994.80
2022-11-14T00:06:02.236Z,994.81
2022-11-14T00:07:02.246Z,994.83
2022-11-14T00:08:02.273Z,994.82
2022-11-14T00:09:02.179Z,994.76
2022-11-14T00:10:02.122Z,994.76
2022-11-14T00:11:02.093Z,994.80
2022-11-14T00:12:02.077Z,994.78
2022-11-14T00:13:02.049Z,994.78
2022-11-14T00:14:02.045Z,994.76
2022-11-14T00:15:02.035Z,994.74
2022-11-14T00:16:01.969Z,994.78
2022-11-14T00:17:01.969Z,994.70
2022-11-14T00:18:01.931Z,994.69
2022-11-14T00:19:01.940Z,994.72
2022-11-14T00:20:01.867Z,994.71
2022-11-14T00:21:01.854Z,994.73
2022-11-14T00:22:01.823Z,994.76
2022-11-14T00:23:01.784Z,994.76
2022-11-14T00:24:01.883Z,994.80
2022-11-14T00:25:01.758Z,994.81
2022-11-14T00:26:01.708Z,994.76
2022-11-14T00:27:01.690Z,994.75
2022-11-14T00:28:01.690Z,994.77
2022-11-14T00:29:01.653Z,994.74
2022-11-14T00:30:01.616Z,994.76
2022-11-14T00:31:01.597Z,994.77
2022-11-14T00:32:01.570Z,994.79
2022-11-14T00:33:01.550Z,994.76
2022-11-14T00:34:01.513Z,994.77
2022-11-14T00:35:01.480Z,994.75
2022-11-14T00:36:01.455Z,994.75
2022-11-14T00:37:01.461Z,994.76
2022-11-14T00:38:01.405Z,994.77
2022-11-14T00:39:01.381Z,994.78
2022-11-14T00:40:01.508Z,994.79
2022-11-14T00:41:01.362Z,994.74
2022-11-14T00:42:01.302Z,994.76
2022-11-14T00:43:01.276Z,994.73
2022-11-14T00:44:01.251Z,994.72
2022-11-14T00:45:01.259Z,994.75
2022-11-14T00:46:01.226Z,994.71
2022-11-14T00:47:01.179Z,994.74
2022-11-14T00:48:01.191Z,994.74
2022-11-14T00:49:01.133Z,994.75
2022-11-14T00:50:01.107Z,994.73
2022-11-14T00:51:01.084Z,994.72
2022-11-14T00:52:01.059Z,994.68
2022-11-14T00:53:01.029Z,994.68
2022-11-14T00:54:01.015Z,994.65
2022-11-14T00:55:01.103Z,994.63
2022-11-14T00:56:01.050Z,994.63
2022-11-14T00:57:00.930Z,994.63
2022-11-14T00:58:00.900Z,994.62
2022-11-14T00:59:00.874Z,994.59
2022-11-14T01:00:00.852Z,994.56
2022-11-14T01:01:00.863Z,994.54
2022-11-14T01:02:00.853Z,994.56
2022-11-14T01:03:00.770Z,994.53
2022-11-14T01:04:00.744Z,994.57
2022-11-14T01:05:00.739Z,994.55
2022-11-14T01:06:00.695Z,994.53
2022-11-14T01:07:00.741Z,994.51
2022-11-14T01:08:00.646Z,994.49
2022-11-14T01:09:00.676Z,994.44
2022-11-14T01:10:00.588Z,994.46
2022-11-14T01:11:00.576Z,994.45
2022-11-14T01:12:00.744Z,994.46
2022-11-14T01:13:00.517Z,994.46
2022-11-14T01:14:00.490Z,994.41
2022-11-14T01:15:00.486Z,994.37
2022-11-14T01:16:00.440Z,994.36
2022-11-14T01:17:00.411Z,994.33
2022-11-14T01:18:00.404Z,994.29
2022-11-14T01:19:00.375Z,994.29
2022-11-14T01:20:00.335Z,994.23
2022-11-14T01:21:00.336Z,994.24
2022-11-14T01:22:04.748Z,994.24
2022-11-14T01:23:00.255Z,994.22
2022-11-14T01:24:00.233Z,994.17
2022-11-14T01:25:00.215Z,994.17
2022-11-14T01:26:00.177Z,994.24
2022-11-14T01:27:00.215Z,994.17
2022-11-14T01:28:00.221Z,994.19
2022-11-14T01:29:00.099Z,994.21
2022-11-14T01:30:00.103Z,994.24
2022-11-14T01:31:00.061Z,994.20
2022-11-14T01:32:00.026Z,994.14
2022-11-14T01:33:00.004Z,994.12
2022-11-14T01:33:59.983Z,994.11
2022-11-14T01:34:59.941Z,994.12
2022-11-14T01:35:59.924Z,994.07
2022-11-14T01:36:59.955Z,994.09
2022-11-14T01:37:59.881Z,994.07
2022-11-14T01:38:59.853Z,994.10
2022-11-14T01:39:59.834Z,994.10
2022-11-14T01:40:59.796Z,994.06
2022-11-14T01:41:59.763Z,994.09
2022-11-14T01:42:59.752Z,994.05
2022-11-14T01:43:59.843Z,994.07
2022-11-14T01:44:59.695Z,994.02
2022-11-14T01:45:59.668Z,994.01
2022-11-14T01:46:59.657Z,994.00
2022-11-14T01:47:59.622Z,993.99
2022-11-14T01:48:59.609Z,994.02
2022-11-14T01:49:59.583Z,994.04
2022-11-14T01:50:59.530Z,993.99
2022-11-14T01:51:59.502Z,993.93
2022-11-14T01:52:59.521Z,993.92
2022-11-14T01:53:59.460Z,993.91
2022-11-14T01:54:59.462Z,993.93
2022-11-14T01:55:59.413Z,993.91
2022-11-14T01:56:59.376Z,993.88
2022-11-14T01:57:59.355Z,993.89
2022-11-14T01:58:59.332Z,993.91
2022-11-14T01:59:59.405Z,993.89
2022-11-14T02:00:59.327Z,993.86
2022-11-14T02:01:59.290Z,993.85
2022-11-14T02:02:59.220Z,993.85
2022-11-14T02:03:59.199Z,993.85
2022-11-14T02:04:59.184Z,993.83
2022-11-14T02:05:59.153Z,993.81
2022-11-14T02:06:59.150Z,993.80
2022-11-14T02:07:59.087Z,993.82
2022-11-14T02:08:59.096Z,993.80
2022-11-14T02:09:59.036Z,993.72
2022-11-14T02:10:59.022Z,993.77
2022-11-14T02:11:59.004Z,993.76
2022-11-14T02:12:58.956Z,993.77
2022-11-14T02:13:58.986Z,993.74
2022-11-14T02:14:58.916Z,993.75
2022-11-14T02:15:58.976Z,993.74
2022-11-14T02:17:22.606Z,993.71
2022-11-14T02:17:58.833Z,993.72
2022-11-14T02:18:58.837Z,993.72
2022-11-14T02:20:04.586Z,993.67
2022-11-14T02:20:58.790Z,993.67
2022-11-14T02:21:58.723Z,993.70
2022-11-14T02:22:58.697Z,993.62
2022-11-14T02:23:58.677Z,993.61
2022-11-14T02:24:58.645Z,993.59
2022-11-14T02:25:58.618Z,993.62
2022-11-14T02:26:58.594Z,993.61
2022-11-14T02:27:58.569Z,993.63
2022-11-14T02:28:58.545Z,993.58
2022-11-14T02:29:58.516Z,993.54
2022-11-14T02:30:58.492Z,993.52
2022-11-14T02:31:58.563Z,993.52
2022-11-14T02:33:13.723Z,993.51
2022-11-14T02:33:58.430Z,993.44
2022-11-14T02:34:58.390Z,993.47
2022-11-14T02:35:58.376Z,993.52
2022-11-14T02:36:58.337Z,993.41
2022-11-14T02:37:58.316Z,993.44
2022-11-14T02:38:58.289Z,993.51
2022-11-14T02:39:58.283Z,993.49
2022-11-14T02:40:58.234Z,993.45
2022-11-14T02:41:58.247Z,993.44
2022-11-14T02:42:58.174Z,993.44
2022-11-14T02:43:58.157Z,993.43
2022-11-14T02:44:58.125Z,993.45
2022-11-14T02:46:02.814Z,993.46
2022-11-14T02:46:58.125Z,993.53
2022-11-14T02:47:58.159Z,993.52
2022-11-14T02:48:58.056Z,993.46
2022-11-14T02:49:57.994Z,993.44
2022-11-14T02:50:57.972Z,993.46
2022-11-14T02:51:57.952Z,993.42
2022-11-14T02:52:57.954Z,993.43
2022-11-14T02:53:57.890Z,993.42
2022-11-14T02:54:57.908Z,993.39
2022-11-14T02:55:57.839Z,993.36
2022-11-14T02:56:57.811Z,993.35
2022-11-14T02:57:57.788Z,993.32
2022-11-14T02:58:57.759Z,993.30
2022-11-14T02:59:57.747Z,993.32
2022-11-14T03:01:19.703Z,993.29
2022-11-14T03:01:57.796Z,993.31
2022-11-14T03:02:57.659Z,993.28
2022-11-14T03:03:57.728Z,993.24
2022-11-14T03:04:57.601Z,993.25
2022-11-14T03:05:57.582Z,993.28
2022-11-14T03:06:57.635Z,993.29
2022-11-14T03:07:57.530Z,993.31
2022-11-14T03:08:57.501Z,993.34
2022-11-14T03:09:57.482Z,993.35
2022-11-14T03:10:57.453Z,993.31
2022-11-14T03:11:57.419Z,993.35
2022-11-14T03:12:57.403Z,993.35
2022-11-14T03:13:57.392Z,993.38
2022-11-14T03:14:57.337Z,993.37
2022-11-14T03:15:57.317Z,993.34
2022-11-14T03:16:57.304Z,993.30
2022-11-14T03:17:57.274Z,993.29
2022-11-14T03:18:57.240Z,993.28
2022-11-14T03:19:57.316Z,993.26
2022-11-14T03:20:57.188Z,993.23
2022-11-14T03:21:57.156Z,993.20
2022-11-14T03:22:57.133Z,993.23
2022-11-14T03:23:57.109Z,993.21
2022-11-14T03:24:57.087Z,993.22
2022-11-14T03:25:57.058Z,993.19
2022-11-14T03:26:57.062Z,993.18
2022-11-14T03:27:57.015Z,993.17
2022-11-14T03:28:56.979Z,993.20
2022-11-14T03:29:56.973Z,993.18
2022-11-14T03:30:56.937Z,993.20
2022-11-14T03:31:56.907Z,993.22
2022-11-14T03:32:56.913Z,993.21
2022-11-14T03:33:56.853Z,993.23
2022-11-14T03:34:56.827Z,993.29
2022-11-14T03:35:56.900Z,993.27
2022-11-14T03:36:56.779Z,993.31
2022-11-14T03:37:56.994Z,993.35
2022-11-14T03:38:56.734Z,993.33
2022-11-14T03:39:56.698Z,993.32
2022-11-14T03:40:56.677Z,993.32
2022-11-14T03:41:56.649Z,993.34
2022-11-14T03:42:56.653Z,993.31
2022-11-14T03:43:56.611Z,993.30
2022-11-14T03:44:56.573Z,993.31
2022-11-14T03:45:56.555Z,993.32
2022-11-14T03:46:56.517Z,993.26
2022-11-14T03:47:56.505Z,993.25
2022-11-14T03:48:56.475Z,993.22
2022-11-14T03:49:56.450Z,993.27
2022-11-14T03:50:56.424Z,993.25
2022-11-14T03:51:56.486Z,993.24
2022-11-14T03:52:56.379Z,993.23
2022-11-14T03:53:56.342Z,993.21
2022-11-14T03:54:56.343Z,993.19
2022-11-14T03:55:56.318Z,993.15
2022-11-14T03:56:56.274Z,993.14
2022-11-14T03:57:56.270Z,993.13
2022-11-14T03:58:56.215Z,993.10
2022-11-14T03:59:56.198Z,993.12
2022-11-14T04:00:56.352Z,993.10
2022-11-14T04:01:56.147Z,993.12
2022-11-14T04:02:56.119Z,993.11
2022-11-14T04:03:56.094Z,993.12
2022-11-14T04:04:56.069Z,993.09
2022-11-14T04:05:56.038Z,993.13
2022-11-14T04:06:56.097Z,993.13
2022-11-14T04:07:56.085Z,993.10
2022-11-14T04:08:55.964Z,993.08
2022-11-14T04:09:55.982Z,993.01
2022-11-14T04:10:55.935Z,993.00
2022-11-14T04:11:55.901Z,993.01
2022-11-14T04:12:55.866Z,992.98
2022-11-14T04:13:55.850Z,993.00
2022-11-14T04:14:55.820Z,993.00
2022-11-14T04:15:55.847Z,992.98
2022-11-14T04:16:55.770Z,993.02
2022-11-14T04:17:55.748Z,992.97
2022-11-14T04:18:55.727Z,992.98
2022-11-14T04:19:55.684Z,992.99
2022-11-14T04:20:55.701Z,992.99
2022-11-14T04:21:55.638Z,992.96
2022-11-14T04:22:55.606Z,992.95
2022-11-14T04:23:55.692Z,992.96
2022-11-14T04:24:55.563Z,992.97
2022-11-14T04:25:55.535Z,992.92
2022-11-14T04:26:55.518Z,992.93
2022-11-14T04:27:55.491Z,992.99
2022-11-14T04:28:55.455Z,992.96
2022-11-14T04:29:55.436Z,993.03
2022-11-14T04:30:55.415Z,993.03
2022-11-14T04:31:55.377Z,993.02
2022-11-14T04:32:55.354Z,992.95
2022-11-14T04:33:55.340Z,992.94
2022-11-14T04:34:55.312Z,992.92
2022-11-14T04:35:55.278Z,992.93
2022-11-14T04:36:55.293Z,992.94
2022-11-14T04:37:55.239Z,993.00
2022-11-14T04:38:55.202Z,993.03
2022-11-14T04:39:55.274Z,993.04
2022-11-14T04:40:55.160Z,993.02
2022-11-14T04:41:55.207Z,993.05
2022-11-14T04:42:55.106Z,993.08
2022-11-14T04:43:55.091Z,993.05
2022-11-14T04:44:55.099Z,993.10
2022-11-14T04:45:55.050Z,993.14
2022-11-14T04:46:55.031Z,993.13
2022-11-14T04:47:54.972Z,993.13
2022-11-14T04:48:54.984Z,993.10
2022-11-14T04:49:54.942Z,993.08
2022-11-14T04:50:54.930Z,993.06
2022-11-14T04:51:54.878Z,993.06
2022-11-14T04:52:54.856Z,993.02
2022-11-14T04:53:54.881Z,992.96
2022-11-14T04:54:54.833Z,992.98
2022-11-14T04:55:54.897Z,992.97
2022-11-14T04:56:54.784Z,992.97
2022-11-14T04:57:54.731Z,992.99
2022-11-14T04:58:54.716Z,992.97
2022-11-14T04:59:54.680Z,993.04
2022-11-14T05:00:54.655Z,993.04
2022-11-14T05:01:54.707Z,993.03
2022-11-14T05:02:54.650Z,993.02
2022-11-14T05:03:54.593Z,993.02
2022-11-14T05:04:54.563Z,993.01
2022-11-14T05:05:54.574Z,993.05
2022-11-14T05:06:54.533Z,993.00
2022-11-14T05:07:54.475Z,992.94
2022-11-14T05:08:54.453Z,992.96
2022-11-14T05:09:54.437Z,992.98
2022-11-14T05:10:54.402Z,993.03
2022-11-14T05:11:54.400Z,993.02
2022-11-14T05:12:54.359Z,993.00
2022-11-14T05:13:54.347Z,992.96
2022-11-14T05:14:54.307Z,992.96
2022-11-14T05:15:54.283Z,992.99
2022-11-14T05:16:54.266Z,992.98
2022-11-14T05:17:54.229Z,992.98
2022-11-14T05:18:54.210Z,993.06
2022-11-14T05:19:54.186Z,993.11
2022-11-14T05:20:54.153Z,993.11
2022-11-14T05:21:54.125Z,993.10
2022-11-14T05:22:54.106Z,993.06
2022-11-14T05:23:54.073Z,993.10
2022-11-14T05:24:54.055Z,993.13
2022-11-14T05:25:58.653Z,993.15
2022-11-14T05:26:53.999Z,993.15
2022-11-14T05:27:53.981Z,993.11
2022-11-14T05:28:53.961Z,993.09
2022-11-14T05:29:53.930Z,993.06
2022-11-14T05:30:53.908Z,993.03
2022-11-14T05:31:53.882Z,993.03
2022-11-14T05:32:53.869Z,993.04
2022-11-14T05:33:53.835Z,993.06
2022-11-14T05:34:53.804Z,993.03
2022-11-14T05:35:53.782Z,993.03
2022-11-14T05:36:53.755Z,993.04
2022-11-14T05:37:58.801Z,992.98
2022-11-14T05:38:53.710Z,992.99
2022-11-14T05:39:53.711Z,992.92
2022-11-14T05:40:53.665Z,992.90
2022-11-14T05:41:53.635Z,992.94
2022-11-14T05:42:53.637Z,992.93
2022-11-14T05:43:53.582Z,992.94
2022-11-14T05:44:53.630Z,992.94
2022-11-14T05:45:53.541Z,992.99
2022-11-14T05:46:53.505Z,992.98
2022-11-14T05:47:53.508Z,993.01
2022-11-14T05:48:53.447Z,992.99
2022-11-14T05:49:53.443Z,992.98
2022-11-14T05:50:53.400Z,993.02
2022-11-14T05:51:53.424Z,993.03
2022-11-14T05:52:53.369Z,993.06
2022-11-14T05:53:53.328Z,993.04
2022-11-14T05:54:53.306Z,993.05
2022-11-14T05:55:53.285Z,993.04
2022-11-14T05:56:53.258Z,993.05
2022-11-14T05:57:53.226Z,993.02
2022-11-14T05:58:53.214Z,992.99
2022-11-14T05:59:53.180Z,992.98
2022-11-14T06:00:54.517Z,992.98
2022-11-14T06:01:53.157Z,992.95
2022-11-14T06:02:53.134Z,992.97
2022-11-14T06:03:53.081Z,992.91
2022-11-14T06:04:53.060Z,992.91
2022-11-14T06:05:53.031Z,992.88
2022-11-14T06:06:53.034Z,992.87
2022-11-14T06:07:52.981Z,992.89
2022-11-14T06:08:52.977Z,992.90
2022-11-14T06:09:52.926Z,992.84
2022-11-14T06:10:54.921Z,992.91
2022-11-14T06:11:52.878Z,992.99
2022-11-14T06:12:52.863Z,992.98
2022-11-14T06:13:52.841Z,992.96
2022-11-14T06:14:52.800Z,993.01
2022-11-14T06:15:52.822Z,992.99
2022-11-14T06:16:52.806Z,992.96
2022-11-14T06:17:52.753Z,992.99
2022-11-14T06:18:52.717Z,992.97
2022-11-14T06:19:52.679Z,992.95
2022-11-14T06:20:52.676Z,992.94
2022-11-14T06:21:52.644Z,992.90
2022-11-14T06:22:52.603Z,992.90
2022-11-14T06:23:52.588Z,992.80
2022-11-14T06:24:52.561Z,992.77
2022-11-14T06:25:52.538Z,992.75
2022-11-14T06:26:52.522Z,992.78
2022-11-14T06:27:52.482Z,992.72
2022-11-14T06:28:52.459Z,992.74
2022-11-14T06:29:52.437Z,992.73
2022-11-14T06:30:52.410Z,992.70
2022-11-14T06:31:52.418Z,992.75
2022-11-14T06:32:52.362Z,992.80
2022-11-14T06:33:52.335Z,992.80
2022-11-14T06:34:52.316Z,992.82
2022-11-14T06:35:52.282Z,992.80
2022-11-14T06:36:52.253Z,992.80
2022-11-14T06:37:52.241Z,992.75
2022-11-14T06:38:52.236Z,992.73
2022-11-14T06:39:52.188Z,992.77
2022-11-14T06:40:52.160Z,992.82
2022-11-14T06:41:52.157Z,992.85
2022-11-14T06:42:52.104Z,992.86
2022-11-14T06:43:52.083Z,992.83
2022-11-14T06:44:52.060Z,992.83
2022-11-14T06:45:52.026Z,992.87
2022-11-14T06:46:52.019Z,992.85
2022-11-14T06:47:51.977Z,992.86
2022-11-14T06:48:51.961Z,992.85
2022-11-14T06:49:51.928Z,992.86
2022-11-14T06:50:51.913Z,992.84
2022-11-14T06:51:51.888Z,992.88
2022-11-14T06:52:51.864Z,992.92
2022-11-14T06:53:51.827Z,992.97
2022-11-14T06:54:51.808Z,992.92
2022-11-14T06:55:51.803Z,992.95
2022-11-14T06:56:51.754Z,992.94
2022-11-14T06:57:51.728Z,992.90
2022-11-14T06:58:51.734Z,992.88
2022-11-14T06:59:51.683Z,992.91
2022-11-14T07:00:51.679Z,992.91
2022-11-14T07:01:51.627Z,992.87
2022-11-14T07:02:51.616Z,992.86
2022-11-14T07:03:51.584Z,992.87
2022-11-14T07:04:51.559Z,992.88
2022-11-14T07:05:51.522Z,992.95
2022-11-14T07:06:51.541Z,992.94
2022-11-14T07:07:51.479Z,992.93
2022-11-14T07:08:51.454Z,992.92
2022-11-14T07:09:51.424Z,992.92
2022-11-14T07:10:51.397Z,992.95
2022-11-14T07:11:51.375Z,992.99
2022-11-14T07:12:51.357Z,993.05
2022-11-14T07:13:51.332Z,992.99
2022-11-14T07:14:51.312Z,993.00
2022-11-14T07:15:51.289Z,993.06
2022-11-14T07:16:51.255Z,993.06
2022-11-14T07:17:51.234Z,993.02
2022-11-14T07:18:51.208Z,993.01
2022-11-14T07:19:51.191Z,993.01
2022-11-14T07:20:51.160Z,992.98
2022-11-14T07:21:51.137Z,992.93
2022-11-14T07:22:51.111Z,992.94
2022-11-14T07:23:51.078Z,992.94
2022-11-14T07:24:51.048Z,993.00
2022-11-14T07:25:51.044Z,993.02
2022-11-14T07:26:51.005Z,993.06
2022-11-14T07:27:50.992Z,993.08
2022-11-14T07:28:54.467Z,993.05
2022-11-14T07:29:50.939Z,993.05
2022-11-14T07:30:50.903Z,993.11
2022-11-14T07:31:50.881Z,993.09
2022-11-14T07:32:50.862Z,993.08
2022-11-14T07:33:50.826Z,993.11
2022-11-14T07:34:50.807Z,993.13
2022-11-14T07:35:50.778Z,993.14
2022-11-14T07:36:50.782Z,993.09
2022-11-14T07:37:50.751Z,993.12
2022-11-14T07:38:50.703Z,993.09
2022-11-14T07:39:50.680Z,993.09
2022-11-14T07:40:51.713Z,993.06
2022-11-14T07:41:50.631Z,993.05
2022-11-14T07:42:50.605Z,992.97
2022-11-14T07:43:50.609Z,992.97
2022-11-14T07:44:50.566Z,993.00
2022-11-14T07:45:50.531Z,993.02
2022-11-14T07:46:50.502Z,993.06
2022-11-14T07:47:50.494Z,993.12
2022-11-14T07:48:50.455Z,993.15
2022-11-14T07:49:50.437Z,993.20
2022-11-14T07:50:50.422Z,993.17
2022-11-14T07:51:50.410Z,993.22
2022-11-14T07:52:50.372Z,993.21
2022-11-14T07:53:50.336Z,993.24
2022-11-14T07:54:50.345Z,993.29
2022-11-14T07:55:50.302Z,993.31
2022-11-14T07:56:50.260Z,993.29
2022-11-14T07:57:50.250Z,993.25
2022-11-14T07:58:50.257Z,993.27
2022-11-14T07:59:50.190Z,993.25
2022-11-14T08:00:50.212Z,993.21
2022-11-14T08:01:50.137Z,993.25
2022-11-14T08:02:50.121Z,993.22
2022-11-14T08:03:50.093Z,993.25
2022-11-14T08:04:50.063Z,993.20
2022-11-14T08:05:50.049Z,993.19
2022-11-14T08:06:50.084Z,993.21
2022-11-14T08:07:50.002Z,993.19
2022-11-14T08:08:49.965Z,993.20
2022-11-14T08:09:49.946Z,993.12
2022-11-14T08:10:49.915Z,993.15
2022-11-14T08:11:49.895Z,993.09
2022-11-14T08:13:04.670Z,993.06
2022-11-14T08:13:49.844Z,993.07
2022-11-14T08:14:49.824Z,993.06
2022-11-14T08:15:49.807Z,993.09
2022-11-14T08:16:49.801Z,993.06
2022-11-14T08:17:49.759Z,993.09
2022-11-14T08:18:49.735Z,993.06
2022-11-14T08:19:49.701Z,993.10
2022-11-14T08:20:49.680Z,993.07
2022-11-14T08:21:49.661Z,993.12
2022-11-14T08:22:49.623Z,993.14
2022-11-14T08:23:49.621Z,993.14
2022-11-14T08:24:49.578Z,993.10
2022-11-14T08:25:49.552Z,993.07
2022-11-14T08:26:49.532Z,993.12
2022-11-14T08:27:49.515Z,993.13
2022-11-14T08:28:49.485Z,993.06
2022-11-14T08:29:49.464Z,993.07
2022-11-14T08:30:49.431Z,993.07
2022-11-14T08:31:49.408Z,993.09
2022-11-14T08:32:49.384Z,993.17
2022-11-14T08:33:49.355Z,993.25
2022-11-14T08:34:49.377Z,993.21
2022-11-14T08:35:49.306Z,993.26
2022-11-14T08:36:49.288Z,993.28
2022-11-14T08:37:49.262Z,993.25
2022-11-14T08:38:51.500Z,993.24
2022-11-14T08:39:49.216Z,993.22
2022-11-14T08:40:49.183Z,993.17
2022-11-14T08:41:49.169Z,993.20
2022-11-14T08:42:49.138Z,993.18
2022-11-14T08:43:49.110Z,993.15
2022-11-14T08:44:52.006Z,993.12
2022-11-14T08:45:49.068Z,993.08
2022-11-14T08:46:49.048Z,993.07
2022-11-14T08:47:49.016Z,993.08
2022-11-14T08:48:48.988Z,993.05
2022-11-14T08:49:48.970Z,993.07
2022-11-14T08:50:48.946Z,993.03
2022-11-14T08:51:48.942Z,993.03
2022-11-14T08:52:48.895Z,993.06
2022-11-14T08:53:48.879Z,993.04
2022-11-14T08:54:48.862Z,993.04
2022-11-14T08:55:48.825Z,993.03
2022-11-14T08:56:48.798Z,992.99
2022-11-14T08:57:49.995Z,992.92
2022-11-14T08:58:48.746Z,992.93
2022-11-14T08:59:48.725Z,992.91
2022-11-14T09:00:48.698Z,992.93
2022-11-14T09:01:48.687Z,992.99
2022-11-14T09:02:48.756Z,993.06
2022-11-14T09:03:48.753Z,993.02
2022-11-14T09:04:48.701Z,993.07
2022-11-14T09:05:48.588Z,993.08
2022-11-14T09:06:48.607Z,993.10
2022-11-14T09:07:48.542Z,993.13
2022-11-14T09:08:48.511Z,993.07
2022-11-14T09:09:48.484Z,993.11
2022-11-14T09:10:48.461Z,993.07
2022-11-14T09:11:48.449Z,993.08
2022-11-14T09:12:48.416Z,993.08
2022-11-14T09:13:48.402Z,993.06
2022-11-14T09:14:48.372Z,993.04
2022-11-14T09:15:48.350Z,993.03
2022-11-14T09:16:48.333Z,993.04
2022-11-14T09:17:48.308Z,993.03
2022-11-14T09:18:48.270Z,993.00
2022-11-14T09:19:48.264Z,992.94
2022-11-14T09:20:48.224Z,992.98
2022-11-14T09:21:48.214Z,992.96
2022-11-14T09:22:48.177Z,992.98
2022-11-14T09:23:48.146Z,993.02
2022-11-14T09:24:48.129Z,993.01
2022-11-14T09:25:48.100Z,993.04
2022-11-14T09:26:50.883Z,993.01
2022-11-14T09:27:48.067Z,993.06
2022-11-14T09:28:48.041Z,993.02
2022-11-14T09:29:48.004Z,992.99
2022-11-14T09:30:47.980Z,992.99
2022-11-14T09:31:47.954Z,992.97
2022-11-14T09:32:47.936Z,992.95
2022-11-14T09:33:47.911Z,992.94
2022-11-14T09:34:47.893Z,992.90
2022-11-14T09:35:47.863Z,992.85
2022-11-14T09:36:47.839Z,992.90
2022-11-14T09:37:47.823Z,992.86
2022-11-14T09:38:47.795Z,992.89
2022-11-14T09:39:47.771Z,992.84
2022-11-14T09:40:47.743Z,992.86
2022-11-14T09:41:47.722Z,992.85
2022-11-14T09:42:47.724Z,992.89
2022-11-14T09:43:47.684Z,992.89
2022-11-14T09:44:47.653Z,992.85
2022-11-14T09:45:47.624Z,992.85
2022-11-14T09:46:47.598Z,992.91
2022-11-14T09:47:47.587Z,992.90
2022-11-14T09:48:47.554Z,992.87
2022-11-14T09:49:47.537Z,992.84
2022-11-14T09:50:47.514Z,992.83
2022-11-14T09:51:47.497Z,992.84
2022-11-14T09:52:47.465Z,992.83
2022-11-14T09:53:47.444Z,992.82
2022-11-14T09:54:47.418Z,992.82
2022-11-14T09:55:47.428Z,992.79
2022-11-14T09:56:47.380Z,992.82
2022-11-14T09:57:47.358Z,992.82
2022-11-14T09:58:47.344Z,992.85
2022-11-14T09:59:47.312Z,992.83
2022-11-14T10:00:47.290Z,992.87
2022-11-14T10:01:47.333Z,992.79
2022-11-14T10:02:47.242Z,992.82
2022-11-14T10:03:47.222Z,992.85
2022-11-14T10:04:47.200Z,992.87
2022-11-14T10:05:47.195Z,992.85
2022-11-14T10:06:47.242Z,992.82
2022-11-14T10:07:47.144Z,992.81
2022-11-14T10:08:47.119Z,992.83
2022-11-14T10:09:47.101Z,992.82
2022-11-14T10:10:47.090Z,992.80
2022-11-14T10:11:47.058Z,992.81
2022-11-14T10:12:47.040Z,992.80
2022-11-14T10:13:47.032Z,992.81
2022-11-14T10:14:46.999Z,992.81
2022-11-14T10:15:46.982Z,992.83
2022-11-14T10:16:46.960Z,992.81
2022-11-14T10:17:46.945Z,992.87
2022-11-14T10:18:46.925Z,992.85
2022-11-14T10:19:46.901Z,992.84
2022-11-14T10:20:46.892Z,992.80
2022-11-14T10:21:46.871Z,992.84
2022-11-14T10:22:46.842Z,992.83
2022-11-14T10:23:46.837Z,992.82
2022-11-14T10:24:46.805Z,992.81
2022-11-14T10:25:46.798Z,992.79
2022-11-14T10:26:46.774Z,992.78
2022-11-14T10:27:49.157Z,992.82
2022-11-14T10:28:46.742Z,992.81
2022-11-14T10:29:46.720Z,992.81
2022-11-14T10:30:46.695Z,992.81
2022-11-14T10:31:46.691Z,992.86
2022-11-14T10:32:46.656Z,992.89
2022-11-14T10:33:46.656Z,992.82
2022-11-14T10:34:46.631Z,992.82
2022-11-14T10:35:46.607Z,992.88
2022-11-14T10:36:46.591Z,992.82
2022-11-14T10:37:46.579Z,992.86
2022-11-14T10:38:46.567Z,992.82
2022-11-14T10:39:46.535Z,992.82
2022-11-14T10:40:46.522Z,992.72
2022-11-14T10:42:06.166Z,992.80
2022-11-14T10:42:46.476Z,992.79
2022-11-14T10:43:46.460Z,992.80
2022-11-14T10:44:46.432Z,992.79
2022-11-14T10:45:46.411Z,992.73
2022-11-14T10:46:46.404Z,992.74
2022-11-14T10:47:46.584Z,992.72
2022-11-14T10:48:46.354Z,992.79
2022-11-14T10:49:46.345Z,992.73
2022-11-14T10:50:46.330Z,992.73
2022-11-14T10:51:46.296Z,992.71
2022-11-14T10:52:46.287Z,992.69
2022-11-14T10:53:46.258Z,992.64
2022-11-14T10:54:46.245Z,992.61
2022-11-14T10:56:03.078Z,992.62
2022-11-14T10:56:46.211Z,992.61
2022-11-14T10:57:46.181Z,992.60
2022-11-14T10:58:49.034Z,992.60
2022-11-14T10:59:46.137Z,992.58
2022-11-14T11:00:46.190Z,992.59
2022-11-14T11:01:46.097Z,992.59
2022-11-14T11:02:46.071Z,992.57
2022-11-14T11:03:46.093Z,992.55
2022-11-14T11:04:46.040Z,992.47
2022-11-14T11:05:46.014Z,992.50
2022-11-14T11:06:46.069Z,992.51
2022-11-14T11:07:45.983Z,992.45
2022-11-14T11:08:46.414Z,992.47
2022-11-14T11:09:46.363Z,992.44
2022-11-14T11:10:45.977Z,992.41
2022-11-14T11:11:45.904Z,992.38
2022-11-14T11:12:46.197Z,992.38
2022-11-14T11:13:45.855Z,992.41
2022-11-14T11:14:45.831Z,992.35
2022-11-14T11:15:45.821Z,992.30
2022-11-14T11:16:45.795Z,992.37
2022-11-14T11:17:45.782Z,992.34
2022-11-14T11:18:50.582Z,992.34
2022-11-14T11:19:45.723Z,992.36
2022-11-14T11:20:45.706Z,992.37
2022-11-14T11:21:45.749Z,992.33
2022-11-14T11:22:45.674Z,992.34
2022-11-14T11:23:45.638Z,992.29
2022-11-14T11:24:45.617Z,992.25
2022-11-14T11:25:45.632Z,992.20
2022-11-14T11:26:45.594Z,992.25
2022-11-14T11:27:45.557Z,992.18
2022-11-14T11:28:45.533Z,992.08
2022-11-14T11:29:45.512Z,992.07
2022-11-14T11:30:46.803Z,992.03
2022-11-14T11:31:45.474Z,992.02
2022-11-14T11:32:45.457Z,992.08
2022-11-14T11:33:45.434Z,991.97
2022-11-14T11:34:45.416Z,992.08
2022-11-14T11:35:45.390Z,992.05
2022-11-14T11:36:45.369Z,992.11
2022-11-14T11:37:45.353Z,992.13
2022-11-14T11:38:45.339Z,992.10
2022-11-14T11:39:45.306Z,992.07
2022-11-14T11:40:45.290Z,992.06
2022-11-14T11:43:45.226Z,992.03
2022-11-14T11:44:45.207Z,992.04
2022-11-14T11:45:45.196Z,992.03
2022-11-14T11:46:45.167Z,992.01
2022-11-14T11:47:45.165Z,992.02
2022-11-14T11:48:45.130Z,992.01
2022-11-14T11:49:48.750Z,992.04
2022-11-14T11:50:45.082Z,992.03
2022-11-14T11:51:45.074Z,991.94
2022-11-14T11:52:45.054Z,991.96
2022-11-14T11:53:45.019Z,991.95
2022-11-14T11:54:45.029Z,992.02
2022-11-14T11:55:45.003Z,991.99
2022-11-14T11:56:44.980Z,992.08
2022-11-14T11:57:44.963Z,992.06
2022-11-14T11:58:44.935Z,992.05
2022-11-14T11:59:44.911Z,992.04
2022-11-14T12:00:44.952Z,992.07
2022-11-14T12:01:44.878Z,992.07
2022-11-14T12:02:49.483Z,992.07
2022-11-14T12:03:44.911Z,992.05
2022-11-14T12:04:44.824Z,992.07
2022-11-14T12:05:44.803Z,992.08
2022-11-14T12:06:44.864Z,992.07
2022-11-14T12:07:44.766Z,992.12
2022-11-14T12:08:44.773Z,992.11
2022-11-14T12:10:11.294Z,992.08
2022-11-14T12:10:44.738Z,992.09
2022-11-14T12:11:44.687Z,992.09
2022-11-14T12:12:44.683Z,992.03
2022-11-14T12:13:44.655Z,992.03
2022-11-14T12:14:44.636Z,992.01
2022-11-14T12:15:44.616Z,992.00
2022-11-14T12:16:44.593Z,991.93
2022-11-14T12:17:44.581Z,991.94
2022-11-14T12:18:44.555Z,991.94
2022-11-14T12:19:44.535Z,991.94
2022-11-14T12:20:44.509Z,991.93
2022-11-14T12:21:44.505Z,991.92
2022-11-14T12:22:44.475Z,991.95
2022-11-14T12:23:44.485Z,991.95
2022-11-14T12:24:44.434Z,991.93
2022-11-14T12:25:44.438Z,991.95
2022-11-14T12:26:44.398Z,991.88
2022-11-14T12:27:44.405Z,991.93
2022-11-14T12:28:44.364Z,991.90
2022-11-14T12:29:44.365Z,991.87